createdAt,value
2023-05-12T00:01:42.990Z,18.04
2023-05-12T00:04:11.369Z,18.03
2023-05-12T00:06:39.294Z,18.04
2023-05-12T00:09:09.622Z,18.05
2023-05-12T00:11:38.412Z,18.04
2023-05-12T00:14:06.323Z,18.06
2023-05-12T00:16:34.150Z,18.03
2023-05-12T00:19:02.484Z,17.99
2023-05-12T00:21:30.265Z,17.99
2023-05-12T00:23:58.027Z,17.97
2023-05-12T00:26:28.004Z,17.95
2023-05-12T00:28:55.808Z,17.91
2023-05-12T00:31:23.628Z,17.91
2023-05-12T00:33:51.960Z,17.85
2023-05-12T00:36:19.754Z,17.85
2023-05-12T00:38:47.521Z,17.84
2023-05-12T00:41:15.858Z,17.82
2023-05-12T00:43:44.985Z,17.81
2023-05-12T00:46:13.376Z,17.78
2023-05-12T00:48:42.155Z,17.73
2023-05-12T00:51:09.993Z,17.69
2023-05-12T00:53:48.178Z,17.72
2023-05-12T00:56:18.852Z,17.76
2023-05-12T00:58:48.033Z,17.77
2023-05-12T01:01:16.013Z,17.76
2023-05-12T01:03:45.059Z,17.72
2023-05-12T01:06:17.777Z,17.69
2023-05-12T01:08:46.613Z,17.70
2023-05-12T01:11:14.412Z,17.68
2023-05-12T01:13:42.195Z,17.67
2023-05-12T01:16:16.357Z,17.67
2023-05-12T01:18:49.879Z,17.66
2023-05-12T01:21:19.546Z,17.60
2023-05-12T01:23:50.086Z,17.65
2023-05-12T01:26:20.160Z,17.64
2023-05-12T01:28:49.246Z,17.57
2023-05-12T01:31:20.874Z,17.50
2023-05-12T01:33:49.411Z,17.49
2023-05-12T01:36:17.230Z,17.48
2023-05-12T01:38:45.024Z,17.44
2023-05-12T01:41:13.249Z,17.38
2023-05-12T01:43:42.421Z,17.37
2023-05-12T01:46:10.881Z,17.37
2023-05-12T01:48:39.070Z,17.24
2023-05-12T01:51:08.781Z,17.21
2023-05-12T01:53:36.576Z,17.20
2023-05-12T01:56:05.032Z,17.23
2023-05-12T01:58:32.839Z,17.20
2023-05-12T02:01:01.975Z,17.14
2023-05-12T02:03:30.429Z,17.13
2023-05-12T02:05:58.611Z,17.15
2023-05-12T02:08:26.443Z,17.11
2023-05-12T02:11:06.553Z,17.10
2023-05-12T02:13:34.685Z,17.07
2023-05-12T02:16:03.995Z,17.08
2023-05-12T02:18:32.376Z,17.03
2023-05-12T02:21:00.486Z,17.07
2023-05-12T02:23:28.275Z,17.06
2023-05-12T02:25:56.555Z,17.10
2023-05-12T02:28:24.354Z,17.11
2023-05-12T02:30:53.158Z,17.09
2023-05-12T02:33:23.230Z,17.06
2023-05-12T02:35:51.451Z,17.06
2023-05-12T02:38:19.549Z,17.05
2023-05-12T02:40:48.303Z,17.08
2023-05-12T02:43:16.128Z,17.07
2023-05-12T02:45:44.068Z,17.10
2023-05-12T02:48:12.492Z,17.08
2023-05-12T02:50:41.788Z,17.13
2023-05-12T02:53:09.758Z,17.14
2023-05-12T02:55:38.301Z,17.16
2023-05-12T02:58:06.076Z,17.17
2023-05-12T03:00:33.822Z,17.18
2023-05-12T03:03:02.200Z,17.16
2023-05-12T03:05:30.041Z,17.13
2023-05-12T03:07:59.670Z,17.16
2023-05-12T03:10:27.788Z,17.20
2023-05-12T03:12:55.659Z,17.22
2023-05-12T03:15:23.470Z,17.15
2023-05-12T03:17:51.837Z,17.12
2023-05-12T03:20:20.314Z,16.94
2023-05-12T03:22:48.307Z,16.90
2023-05-12T03:25:18.228Z,16.70
2023-05-12T03:27:46.093Z,16.66
2023-05-12T03:30:14.833Z,16.55
2023-05-12T03:32:43.224Z,16.54
2023-05-12T03:35:11.315Z,16.49
2023-05-12T03:37:39.093Z,16.26
2023-05-12T03:40:08.503Z,16.23
2023-05-12T03:42:37.636Z,16.26
2023-05-12T03:45:07.039Z,16.27
2023-05-12T03:47:36.430Z,16.30
2023-05-12T03:50:04.428Z,16.23
2023-05-12T03:52:32.191Z,16.23
2023-05-12T03:55:00.256Z,16.26
2023-05-12T03:57:28.022Z,16.28
2023-05-12T03:59:57.942Z,16.31
2023-05-12T04:02:26.489Z,16.29
2023-05-12T04:04:54.460Z,16.35
2023-05-12T04:07:22.206Z,16.35
2023-05-12T04:09:50.514Z,16.31
2023-05-12T04:12:18.274Z,16.33
2023-05-12T04:14:46.027Z,16.35
2023-05-12T04:17:15.540Z,16.38
2023-05-12T04:19:43.304Z,16.29
2023-05-12T04:22:11.032Z,16.34
2023-05-12T04:24:39.835Z,16.29
2023-05-12T04:27:08.077Z,16.29
2023-05-12T04:29:36.291Z,16.31
2023-05-12T04:32:04.681Z,16.28
2023-05-12T04:34:33.886Z,16.22
2023-05-12T04:37:01.761Z,16.21
2023-05-12T04:39:30.311Z,16.25
2023-05-12T04:41:58.086Z,16.26
2023-05-12T04:44:25.829Z,16.28
2023-05-12T04:46:56.720Z,16.17
2023-05-12T04:49:24.620Z,16.23
2023-05-12T04:51:53.772Z,16.15
2023-05-12T04:54:22.248Z,16.18
2023-05-12T04:56:50.038Z,16.18
2023-05-12T04:59:17.872Z,16.21
2023-05-12T05:01:46.399Z,16.21
2023-05-12T05:04:14.588Z,16.22
2023-05-12T05:06:42.366Z,16.20
2023-05-12T05:09:12.181Z,16.24
2023-05-12T05:11:39.990Z,16.19
2023-05-12T05:14:07.807Z,16.21
2023-05-12T05:16:36.163Z,16.14
2023-05-12T05:19:06.632Z,16.17
2023-05-12T05:21:37.717Z,16.12
2023-05-12T05:24:07.166Z,16.18
2023-05-12T05:26:37.894Z,16.21
2023-05-12T05:29:06.243Z,16.18
2023-05-12T05:31:34.297Z,16.23
2023-05-12T05:34:02.772Z,16.26
2023-05-12T05:36:31.654Z,16.26
2023-05-12T05:38:59.637Z,16.28
2023-05-12T05:41:27.985Z,16.31
2023-05-12T05:43:57.100Z,16.28
2023-05-12T05:46:25.014Z,16.25
2023-05-12T05:48:53.339Z,16.27
2023-05-12T05:51:21.120Z,16.28
2023-05-12T05:53:48.876Z,16.15
2023-05-12T05:56:17.105Z,16.20
2023-05-12T05:58:44.843Z,16.18
2023-05-12T06:01:13.982Z,16.17
2023-05-12T06:03:42.434Z,16.19
2023-05-12T06:06:10.320Z,16.19
2023-05-12T06:08:38.094Z,16.10
2023-05-12T06:11:10.156Z,16.16
2023-05-12T06:13:39.010Z,16.12
2023-05-12T06:16:07.519Z,16.14
2023-05-12T06:18:38.336Z,16.08
2023-05-12T06:21:06.618Z,16.03
2023-05-12T06:23:34.756Z,16.10
2023-05-12T06:26:03.813Z,16.09
2023-05-12T06:28:31.642Z,16.08
2023-05-12T06:31:00.831Z,16.12
2023-05-12T06:33:28.816Z,16.12
2023-05-12T06:35:58.099Z,16.15
2023-05-12T06:38:25.927Z,16.14
2023-05-12T06:40:53.906Z,16.16
2023-05-12T06:43:21.754Z,16.18
2023-05-12T06:45:49.540Z,16.18
2023-05-12T06:48:17.585Z,16.21
2023-05-12T06:50:46.324Z,16.19
2023-05-12T06:53:15.546Z,16.21
2023-05-12T06:55:44.360Z,16.18
2023-05-12T06:58:12.104Z,16.20
2023-05-12T07:00:39.874Z,16.21
2023-05-12T07:03:10.322Z,16.22
2023-05-12T07:05:38.444Z,16.23
2023-05-12T07:08:06.888Z,16.24
2023-05-12T07:10:36.267Z,16.22
2023-05-12T07:13:04.003Z,16.24
2023-05-12T07:15:32.942Z,16.28
2023-05-12T07:18:01.144Z,16.30
2023-05-12T07:20:29.235Z,16.31
2023-05-12T07:22:57.295Z,16.31
2023-05-12T07:25:25.174Z,16.33
2023-05-12T07:27:54.302Z,16.37
2023-05-12T07:30:22.773Z,16.36
2023-05-12T07:32:50.829Z,16.39
2023-05-12T07:35:18.954Z,16.40
2023-05-12T07:37:46.956Z,16.41
2023-05-12T07:40:15.098Z,16.40
2023-05-12T07:42:42.972Z,16.41
2023-05-12T07:45:12.567Z,16.44
2023-05-12T07:47:40.446Z,16.52
2023-05-12T07:50:08.999Z,16.54
2023-05-12T07:52:37.272Z,16.56
2023-05-12T07:55:05.383Z,16.59
2023-05-12T07:57:33.176Z,16.63
2023-05-12T08:00:00.938Z,16.65
2023-05-12T08:02:30.332Z,16.69
2023-05-12T08:04:58.500Z,16.71
2023-05-12T08:07:26.252Z,16.74
2023-05-12T08:09:54.512Z,16.78
2023-05-12T08:12:22.472Z,16.79
2023-05-12T08:14:50.423Z,16.83
2023-05-12T08:17:18.969Z,16.85
2023-05-12T08:19:48.233Z,16.90
2023-05-12T08:22:16.212Z,16.94
2023-05-12T08:24:44.216Z,16.95
2023-05-12T08:27:12.017Z,16.98
2023-05-12T08:29:39.841Z,17.02
2023-05-12T08:32:08.826Z,17.05
2023-05-12T08:34:36.796Z,17.04
2023-05-12T08:37:07.408Z,17.15
2023-05-12T08:39:35.873Z,17.19
2023-05-12T08:42:19.823Z,17.22
2023-05-12T08:44:48.759Z,17.24
2023-05-12T08:47:19.454Z,17.28
2023-05-12T08:49:56.250Z,17.32
2023-05-12T08:52:26.786Z,17.36
2023-05-12T08:54:56.622Z,17.39
2023-05-12T08:57:27.392Z,17.43
2023-05-12T08:59:59.240Z,17.47
2023-05-12T09:02:37.780Z,17.53
2023-05-12T09:05:12.826Z,17.59
2023-05-12T09:07:45.024Z,17.65
2023-05-12T09:10:29.819Z,17.67
2023-05-12T09:13:05.131Z,17.67
2023-05-12T09:15:40.126Z,17.73
2023-05-12T09:18:08.180Z,17.75
2023-05-12T09:20:36.181Z,17.79
2023-05-12T09:23:16.114Z,17.84
2023-05-12T09:25:44.111Z,17.87
2023-05-12T09:28:12.726Z,17.90
2023-05-12T09:30:42.672Z,17.93
2023-05-12T09:33:11.797Z,17.97
2023-05-12T09:35:43.768Z,18.00
2023-05-12T09:38:14.775Z,18.02
2023-05-12T09:40:43.227Z,17.97
2023-05-12T09:43:14.414Z,18.07
2023-05-12T09:45:44.115Z,18.09
2023-05-12T09:48:14.267Z,18.13
2023-05-12T09:50:48.138Z,18.17
2023-05-12T09:53:19.165Z,18.18
2023-05-12T09:55:49.225Z,18.18
2023-05-12T09:58:18.412Z,18.19
2023-05-12T10:03:22.408Z,18.22
2023-05-12T10:05:51.959Z,18.23
2023-05-12T10:08:25.989Z,18.30
2023-05-12T10:10:56.147Z,18.30
2023-05-12T10:13:25.144Z,18.29
2023-05-12T10:15:57.346Z,18.29
2023-05-12T10:18:25.392Z,18.25
2023-05-12T10:20:54.775Z,18.22
2023-05-12T10:23:25.057Z,18.17
2023-05-12T10:25:53.992Z,18.21
2023-05-12T10:28:22.573Z,18.22
2023-05-12T10:30:52.265Z,18.22
2023-05-12T10:33:20.339Z,18.21
2023-05-12T10:35:49.448Z,18.22
2023-05-12T10:38:18.169Z,18.23
2023-05-12T10:40:59.762Z,18.26
2023-05-12T10:43:29.990Z,18.29
2023-05-12T10:46:18.452Z,18.36
2023-05-12T10:48:57.957Z,18.45
2023-05-12T10:51:26.503Z,18.44
2023-05-12T10:53:58.546Z,18.47
2023-05-12T10:56:31.876Z,18.59
2023-05-12T10:59:25.264Z,18.67
2023-05-12T11:02:03.560Z,18.73
2023-05-12T11:04:44.505Z,18.84
2023-05-12T11:07:14.700Z,18.89
2023-05-12T11:12:18.337Z,19.08
2023-05-12T11:14:48.012Z,19.14
2023-05-12T11:17:16.652Z,19.25
2023-05-12T11:19:48.541Z,19.40
2023-05-12T11:22:19.111Z,19.54
2023-05-12T11:24:47.179Z,19.66
2023-05-12T11:27:18.108Z,19.78
2023-05-12T11:29:47.287Z,19.90
2023-05-12T11:32:16.774Z,20.01
2023-05-12T11:34:45.155Z,20.07
2023-05-12T11:37:12.967Z,20.06
2023-05-12T11:39:42.529Z,20.10
2023-05-12T11:42:13.535Z,20.12
2023-05-12T11:44:49.871Z,20.13
2023-05-12T11:47:19.259Z,20.07
2023-05-12T11:49:48.777Z,20.04
2023-05-12T11:52:17.595Z,20.02
2023-05-12T11:54:50.465Z,20.03
2023-05-12T11:57:26.728Z,20.00
2023-05-12T12:00:00.343Z,20.07
2023-05-12T12:02:29.076Z,20.06
2023-05-12T12:04:57.331Z,20.10
2023-05-12T12:07:32.668Z,19.93
2023-05-12T12:10:11.349Z,19.76
2023-05-12T12:12:39.427Z,19.85
2023-05-12T12:15:09.982Z,19.73
2023-05-12T12:17:37.809Z,19.79
2023-05-12T12:20:06.866Z,19.74
2023-05-12T12:22:35.163Z,19.75
2023-05-12T12:25:03.053Z,19.77
2023-05-12T12:27:31.569Z,19.81
2023-05-12T12:29:59.568Z,19.69
2023-05-12T12:32:29.126Z,19.82
2023-05-12T12:35:00.175Z,19.88
2023-05-12T12:37:28.131Z,20.00
2023-05-12T12:39:55.976Z,20.10
2023-05-12T12:42:24.291Z,20.00
2023-05-12T12:44:52.527Z,19.98
2023-05-12T12:47:20.478Z,20.05
2023-05-12T12:49:49.814Z,19.97
2023-05-12T12:52:17.581Z,20.06
2023-05-12T12:54:45.356Z,20.13
2023-05-12T12:57:13.396Z,20.26
2023-05-12T12:59:41.297Z,20.29
2023-05-12T13:02:09.165Z,20.31
2023-05-12T13:04:37.222Z,20.18
2023-05-12T13:07:07.278Z,20.20
2023-05-12T13:09:35.046Z,20.14
2023-05-12T13:12:03.081Z,20.19
2023-05-12T13:14:30.846Z,20.04
2023-05-12T13:16:58.648Z,20.12
2023-05-12T13:19:26.690Z,19.99
2023-05-12T13:21:54.488Z,20.12
2023-05-12T13:24:24.020Z,20.05
2023-05-12T13:26:52.082Z,20.12
2023-05-12T13:29:19.954Z,20.16
2023-05-12T13:31:47.821Z,20.27
2023-05-12T13:34:15.963Z,20.33
2023-05-12T13:36:43.765Z,20.35
2023-05-12T13:39:11.521Z,20.34
2023-05-12T13:41:41.015Z,20.43
2023-05-12T13:44:08.979Z,20.49
2023-05-12T13:46:36.985Z,20.49
2023-05-12T13:49:04.875Z,20.50
2023-05-12T13:51:33.001Z,20.53
2023-05-12T13:54:02.051Z,20.54
2023-05-12T13:56:29.835Z,20.55
2023-05-12T13:58:58.979Z,20.58
2023-05-12T14:01:26.833Z,20.58
2023-05-12T14:03:55.200Z,20.62
2023-05-12T14:06:22.982Z,20.64
2023-05-12T14:08:50.765Z,20.67
2023-05-12T14:11:19.224Z,20.69
2023-05-12T14:13:47.026Z,20.73
2023-05-12T14:16:16.618Z,20.77
2023-05-12T14:18:44.914Z,20.81
2023-05-12T14:21:12.889Z,20.82
2023-05-12T14:23:40.783Z,20.83
2023-05-12T14:26:09.397Z,20.83
2023-05-12T14:28:38.810Z,20.83
2023-05-12T14:31:06.672Z,20.89
2023-05-12T14:33:36.543Z,20.95
2023-05-12T14:36:08.024Z,20.98
2023-05-12T14:38:37.397Z,21.03
2023-05-12T14:41:07.642Z,21.08
2023-05-12T14:43:35.817Z,21.10
2023-05-12T14:46:04.950Z,21.05
2023-05-12T14:48:33.129Z,21.10
2023-05-12T14:51:04.788Z,21.14
2023-05-12T14:53:33.259Z,21.15
2023-05-12T14:56:01.464Z,21.18
2023-05-12T14:58:29.263Z,21.20
2023-05-12T15:00:57.491Z,21.19
2023-05-12T15:03:25.597Z,21.26
2023-05-12T15:06:05.766Z,21.32
2023-05-12T15:08:36.512Z,21.38
2023-05-12T15:11:04.564Z,21.45
2023-05-12T15:13:32.472Z,21.51
2023-05-12T15:16:00.704Z,21.53
2023-05-12T15:18:28.553Z,21.55
2023-05-12T15:20:56.385Z,21.56
2023-05-12T15:23:24.517Z,21.55
2023-05-12T15:25:53.708Z,21.53
2023-05-12T15:28:21.554Z,21.53
2023-05-12T15:30:56.652Z,21.46
2023-05-12T15:33:24.789Z,21.50
2023-05-12T15:35:52.641Z,21.48
2023-05-12T15:38:20.832Z,21.48
2023-05-12T15:40:49.054Z,21.46
2023-05-12T15:43:18.304Z,21.49
2023-05-12T15:45:46.691Z,21.50
2023-05-12T15:48:14.496Z,21.51
2023-05-12T15:50:42.322Z,21.50
2023-05-12T15:53:10.545Z,21.52
2023-05-12T15:55:38.346Z,21.53
2023-05-12T15:58:08.122Z,21.51
2023-05-12T16:00:37.472Z,21.60
2023-05-12T16:03:05.441Z,21.66
2023-05-12T16:05:37.709Z,21.67
2023-05-12T16:08:05.502Z,21.72
2023-05-12T16:10:33.274Z,21.75
2023-05-12T16:13:01.597Z,21.77
2023-05-12T16:15:29.384Z,21.78
2023-05-12T16:17:58.793Z,21.80
2023-05-12T16:20:26.513Z,21.84
2023-05-12T16:22:55.044Z,21.82
2023-05-12T16:25:23.083Z,21.43
2023-05-12T16:27:51.052Z,21.55
2023-05-12T16:30:20.379Z,21.51
2023-05-12T16:32:48.193Z,21.31
2023-05-12T16:35:17.633Z,21.37
2023-05-12T16:37:45.257Z,21.35
2023-05-12T16:40:13.429Z,21.25
2023-05-12T16:42:41.903Z,21.31
2023-05-12T16:45:11.939Z,21.32
2023-05-12T16:47:39.761Z,21.33
2023-05-12T16:50:09.667Z,21.34
2023-05-12T16:52:38.837Z,21.34
2023-05-12T16:55:07.784Z,21.33
2023-05-12T16:57:36.255Z,21.33
2023-05-12T17:00:05.820Z,21.31
2023-05-12T17:02:33.877Z,21.35
2023-05-12T17:05:02.372Z,21.32
2023-05-12T17:07:31.040Z,21.31
2023-05-12T17:10:00.197Z,21.27
2023-05-12T17:12:28.599Z,21.23
2023-05-12T17:15:06.934Z,21.22
2023-05-12T17:17:36.898Z,21.20
2023-05-12T17:20:06.045Z,21.10
2023-05-12T17:22:37.497Z,21.10
2023-05-12T17:25:08.554Z,21.10
2023-05-12T17:27:36.373Z,21.08
2023-05-12T17:30:05.161Z,21.07
2023-05-12T17:32:33.160Z,21.04
2023-05-12T17:35:01.012Z,21.08
2023-05-12T17:37:30.688Z,21.08
2023-05-12T17:39:59.289Z,21.07
2023-05-12T17:42:31.498Z,21.07
2023-05-12T17:44:59.625Z,21.02
2023-05-12T17:47:27.805Z,21.04
2023-05-12T17:49:57.002Z,20.96
2023-05-12T17:52:24.767Z,20.95
2023-05-12T17:54:55.698Z,20.96
2023-05-12T17:57:23.826Z,20.95
2023-05-12T17:59:53.126Z,20.95
2023-05-12T18:02:21.602Z,20.93
2023-05-12T18:04:50.216Z,20.94
2023-05-12T18:07:18.102Z,20.95
2023-05-12T18:09:45.859Z,20.95
2023-05-12T18:12:14.361Z,20.95
2023-05-12T18:14:42.134Z,20.94
2023-05-12T18:17:11.400Z,20.93
2023-05-12T18:19:39.296Z,20.93
2023-05-12T18:22:07.337Z,20.91
2023-05-12T18:24:35.224Z,20.89
2023-05-12T18:27:05.274Z,20.83
2023-05-12T18:29:34.205Z,20.82
2023-05-12T18:32:02.065Z,20.75
2023-05-12T18:34:31.793Z,20.75
2023-05-12T18:36:59.583Z,20.73
2023-05-12T18:39:27.370Z,20.73
2023-05-12T18:41:56.121Z,20.73
2023-05-12T18:44:23.884Z,20.71
2023-05-12T18:46:51.710Z,20.67
2023-05-12T18:49:20.023Z,20.62
2023-05-12T18:51:49.162Z,20.59
2023-05-12T18:54:16.953Z,20.57
2023-05-12T18:56:47.277Z,20.54
2023-05-12T18:59:15.169Z,20.51
2023-05-12T19:01:43.048Z,20.48
2023-05-12T19:04:11.189Z,20.48
2023-05-12T19:06:38.969Z,20.47
2023-05-12T19:09:08.289Z,20.47
2023-05-12T19:11:36.570Z,20.46
2023-05-12T19:14:04.332Z,20.46
2023-05-12T19:16:34.838Z,20.46
2023-05-12T19:19:03.553Z,20.45
2023-05-12T19:21:32.285Z,20.43
2023-05-12T19:24:01.098Z,20.42
2023-05-12T19:26:31.191Z,20.41
2023-05-12T19:29:00.426Z,20.38
2023-05-12T19:31:28.270Z,20.36
2023-05-12T19:33:56.527Z,20.34
2023-05-12T19:36:24.334Z,20.30
2023-05-12T19:38:52.110Z,20.29
2023-05-12T19:41:20.760Z,20.23
2023-05-12T19:43:49.902Z,20.23
2023-05-12T19:46:17.991Z,20.18
2023-05-12T19:48:46.387Z,20.15
2023-05-12T19:51:14.207Z,20.14
2023-05-12T19:53:43.092Z,20.10
2023-05-12T19:56:11.654Z,20.07
2023-05-12T19:58:39.427Z,20.05
2023-05-12T20:01:08.684Z,20.04
2023-05-12T20:03:36.998Z,20.02
2023-05-12T20:06:05.844Z,19.99
2023-05-12T20:08:33.612Z,19.96
2023-05-12T20:11:01.888Z,19.95
2023-05-12T20:13:29.709Z,19.92
2023-05-12T20:15:57.471Z,19.90
2023-05-12T20:18:28.501Z,19.90
2023-05-12T20:20:56.418Z,19.87
2023-05-12T20:23:24.683Z,19.84
2023-05-12T20:25:53.546Z,19.81
2023-05-12T20:28:22.417Z,19.80
2023-05-12T20:30:50.381Z,19.77
2023-05-12T20:33:18.395Z,19.76
2023-05-12T20:35:47.586Z,19.74
2023-05-12T20:38:15.386Z,19.65
2023-05-12T20:40:43.422Z,19.71
2023-05-12T20:43:13.408Z,19.70
2023-05-12T20:45:41.740Z,19.70
2023-05-12T20:48:10.536Z,19.67
2023-05-12T20:50:38.393Z,19.64
2023-05-12T20:53:07.540Z,19.63
2023-05-12T20:55:35.409Z,19.62
2023-05-12T20:58:03.191Z,19.62
2023-05-12T21:00:31.034Z,19.60
2023-05-12T21:02:59.620Z,19.58
2023-05-12T21:05:27.416Z,19.54
2023-05-12T21:07:55.207Z,19.51
2023-05-12T21:10:24.564Z,19.46
2023-05-12T21:12:52.598Z,19.43
2023-05-12T21:15:20.544Z,19.44
2023-05-12T21:17:48.516Z,19.42
2023-05-12T21:20:16.329Z,19.44
2023-05-12T21:22:44.098Z,19.40
2023-05-12T21:25:12.742Z,19.41
2023-05-12T21:27:41.933Z,19.37
2023-05-12T21:30:11.080Z,19.35
2023-05-12T21:32:39.910Z,19.34
2023-05-12T21:35:08.531Z,19.34
2023-05-12T21:37:36.503Z,19.30
2023-05-12T21:40:05.389Z,19.29
2023-05-12T21:42:33.167Z,19.31
2023-05-12T21:45:02.265Z,19.33
2023-05-12T21:47:30.582Z,19.33
2023-05-12T21:49:58.359Z,19.34
2023-05-12T21:52:26.159Z,19.36
2023-05-12T21:54:54.554Z,19.38
2023-05-12T21:57:22.377Z,19.39
2023-05-12T21:59:50.116Z,19.40
2023-05-12T22:02:19.806Z,19.42
2023-05-12T22:04:47.908Z,19.41
2023-05-12T22:07:15.679Z,19.41
2023-05-12T22:09:44.013Z,19.41
2023-05-12T22:12:15.513Z,19.38
2023-05-12T22:14:43.440Z,19.42
2023-05-12T22:17:11.792Z,19.40
2023-05-12T22:19:41.426Z,19.39
2023-05-12T22:22:09.461Z,19.38
2023-05-12T22:24:37.797Z,19.36
2023-05-12T22:27:05.794Z,19.35
2023-05-12T22:29:33.670Z,19.33
2023-05-12T22:32:02.044Z,19.32
2023-05-12T22:34:29.821Z,19.30
2023-05-12T22:36:59.018Z,19.29
2023-05-12T22:39:27.174Z,19.27
2023-05-12T22:41:54.979Z,19.25
2023-05-12T22:44:22.748Z,19.23
2023-05-12T22:46:51.186Z,19.21
2023-05-12T22:49:19.018Z,19.19
2023-05-12T22:51:46.788Z,19.15
2023-05-12T22:54:15.998Z,19.13
2023-05-12T22:56:44.699Z,19.09
2023-05-12T22:59:12.626Z,19.04
2023-05-12T23:01:41.138Z,19.01
2023-05-12T23:04:09.335Z,18.99
2023-05-12T23:06:37.163Z,18.95
2023-05-12T23:09:05.714Z,18.91
2023-05-12T23:11:34.887Z,18.89
2023-05-12T23:14:02.684Z,18.84
2023-05-12T23:16:30.988Z,18.80
2023-05-12T23:18:58.819Z,18.76
2023-05-12T23:21:26.585Z,18.75
2023-05-12T23:23:54.880Z,18.72
2023-05-12T23:26:22.689Z,18.69
2023-05-12T23:28:51.843Z,18.68
2023-05-12T23:31:20.186Z,18.64
2023-05-12T23:33:48.016Z,18.62
2023-05-12T23:36:15.920Z,18.59
2023-05-12T23:38:44.382Z,18.57
2023-05-12T23:41:12.182Z,18.55
2023-05-12T23:43:40.206Z,18.53
2023-05-12T23:46:10.088Z,18.52
2023-05-12T23:48:38.151Z,18.48
2023-05-12T23:51:05.942Z,18.46
2023-05-12T23:53:34.540Z,18.44
2023-05-12T23:56:02.961Z,18.43
2023-05-12T23:58:30.808Z,18.40
